SPSO

Details ICAO SPSO (PIO)
Name PISCO INTL
Region Peru
Timezone America/Lima (UTC-5.0)
Plans Departing 20
Arriving 20
Stats Elevation 39 ft / 12 m (AMSL)
Location -13.744864° -76.220282°
Runways 1
Magnetic Variation 2.080° W
Sunrise 2018-05-26 11:21:25 UTC / 2018-05-26 06:21:25 Local
Sunset 2018-05-26 22:45:21 UTC / 2018-05-26 17:45:21 Local
Advertisement - Login to hide

Runways

ID Width Length Bearing (true) Bearing (mag) Surface Threshold Offset Overrun Length
04 148 ft / 45 m 9,940 ft / 3,030 m 37.83° 39.91° Asphalt 0 ft / 0 m 625 ft / 191 m
22 148 ft / 45 m 9,940 ft / 3,030 m 217.82° 219.90° Asphalt 0 ft / 0 m 90 ft / 27 m

Map

Weather


0- 5 10 15 20 25 30 35+ Temperature / ° C

Clouds and Precipitation
Forecast for 2018-05-26 18:00 UTC. Updated 3 hours ago

Ground ~20,000 ft ~40,000 ft Winds

METAR

SPSO 261900Z 29007KT 260V320 7000 OVC022 19/17 Q1013 RMK BIRD HAZARD RWY 22/04 PP000

TAF

SPSO 261700Z 2618/2718 27010KT 8000 SCT020 TX20/2619Z TN14/2711Z TEMPO 2618/2620 33005KT FEW010 BKN020 BECMG 2620/2622 21012KT BECMG 2700/2702 OVC015 FM270400 17005KT 6000 SCT008 OVC012

Frequencies

Ground 121.90 MHz GND
Tower 118.30 MHz APP/TWR
Warning: Do not use this data for real-world aviation or navigation. No guarantee of current accuracy is given.